Terminal Aerodrome Forecast
Issued by NWS

Current Version | Previous Version | Text Only | Print | Product List | Glossary On
Versions: 1 2 3 4 5 6 7 8 9 10 11 12 13 14 15 16 17 18 19 20 21 22
000
FTUS44 KLIX 020500 RRA
TAFMSY
TAF
KMSY 020540Z 0206/0306 08011G19KT 1SM BR OVC002
      TEMPO 0206/0208 2SM TSRA BR BKN010CB BKN040
     FM020800 09004KT 1/4SM FG OVC003
     FM021500 12004KT 2SM BR OVC003
     FM021800 12004KT 5SM BR BKN008=

USA.gov is the U.S. government's official web portal to all federal, state and local government web resources and services.